createdAt,value
2018-07-01T19:06:40.455Z,61.09
2018-07-01T19:24:10.737Z,63.01
2018-07-01T19:33:56.212Z,62.76
2018-07-01T19:36:26.124Z,62.64
2018-07-01T19:38:57.535Z,63.30
2018-07-01T19:41:27.419Z,64.22
2018-07-01T19:43:59.100Z,64.88
2018-07-01T19:46:29.234Z,65.22
2018-07-01T19:49:04.603Z,64.79
2018-07-01T19:51:34.447Z,63.94
2018-07-01T19:54:04.348Z,64.57
2018-07-01T19:56:34.167Z,64.27
2018-07-01T19:59:04.672Z,63.91
2018-07-01T20:01:35.587Z,63.81
2018-07-01T20:04:05.834Z,63.50
2018-07-01T20:06:35.817Z,63.70
2018-07-01T20:09:09.973Z,62.78
2018-07-01T20:11:43.935Z,62.70
2018-07-01T20:14:13.997Z,63.21
2018-07-01T20:16:44.323Z,64.29
2018-07-01T20:19:15.215Z,64.65
2018-07-01T20:21:45.550Z,65.09
2018-07-01T20:24:18.976Z,65.03
2018-07-01T20:26:49.865Z,65.72
2018-07-01T20:29:20.411Z,66.40
2018-07-01T20:31:53.822Z,66.52
2018-07-01T20:34:24.504Z,67.28
2018-07-01T20:36:57.591Z,67.53
2018-07-01T20:39:30.439Z,67.39
2018-07-01T20:42:03.636Z,67.06
2018-07-01T20:44:34.436Z,68.19
2018-07-01T20:47:04.347Z,67.68
2018-07-01T20:49:35.110Z,68.26
2018-07-01T20:52:05.895Z,68.70
2018-07-01T20:54:36.442Z,68.75
2018-07-01T20:57:12.320Z,68.42
2018-07-01T20:59:43.494Z,66.99
2018-07-01T21:02:14.189Z,67.68
2018-07-01T21:04:45.535Z,68.31
2018-07-01T21:07:15.439Z,68.27
2018-07-01T21:09:49.171Z,68.01
2018-07-01T21:12:25.455Z,68.84
2018-07-01T21:14:55.435Z,69.01
2018-07-01T21:17:25.511Z,69.66
2018-07-01T21:19:58.404Z,69.98
2018-07-01T21:22:32.150Z,70.30
2018-07-01T21:25:04.382Z,69.47
2018-07-01T21:27:40.500Z,69.53
2018-07-01T21:30:12.244Z,69.27
2018-07-01T21:32:44.324Z,69.88
2018-07-01T21:35:15.016Z,70.07
2018-07-01T21:37:47.079Z,70.16
2018-07-01T21:40:17.992Z,70.31
2018-07-01T21:42:53.663Z,69.68
2018-07-01T21:45:26.363Z,69.42
2018-07-01T21:47:56.290Z,70.14
2018-07-01T21:50:26.195Z,69.93
2018-07-01T21:52:56.147Z,70.04
2018-07-01T21:55:25.974Z,69.93
2018-07-01T21:57:55.935Z,70.84
2018-07-01T22:00:32.122Z,70.25
2018-07-01T22:03:03.708Z,70.28
2018-07-01T22:05:34.130Z,70.96
2018-07-01T22:08:04.182Z,70.97
2018-07-01T22:10:44.977Z,70.79
2018-07-01T22:14:38.663Z,70.42
2018-07-01T22:17:09.904Z,70.05
2018-07-01T22:19:40.119Z,70.06
2018-07-01T22:22:10.120Z,70.83
2018-07-01T22:24:40.374Z,70.49
2018-07-01T22:27:10.273Z,70.67
2018-07-01T22:29:40.059Z,70.90
2018-07-01T22:32:10.118Z,70.85
2018-07-01T22:34:40.026Z,70.52
2018-07-01T22:37:09.872Z,69.56
2018-07-01T22:39:39.705Z,68.55
2018-07-01T22:42:09.499Z,69.78
2018-07-01T22:44:40.833Z,70.39
2018-07-01T22:47:10.659Z,69.65
2018-07-01T22:49:40.478Z,69.61
2018-07-01T22:52:10.311Z,70.42
2018-07-01T22:54:40.196Z,70.56
2018-07-01T22:57:10.091Z,69.70
2018-07-01T22:59:39.935Z,69.71
2018-07-01T23:03:16.852Z,70.28
2018-07-01T23:05:46.405Z,71.95
2018-07-01T23:08:16.396Z,73.08
